KFLL/FLL METAR and TAF weather

Enter ICAO airport designator
Station Type Date Time Source
KFLL METAR 2018/12/17 01:53 UTC NOAA

KFLL 170153Z 29007KT 10SM BKN050 22/16 A3011 RMK AO2 SLP196 T02170156


Station Type Date Time Source
KFLL Decoded METAR 2018/12/17 01:53 UTC NOAA

FORT LAUDERDALE/HOLLYWOOD, FL, United States (KFLL) 26-04N 080-09W 30M
Dec 16, 2018 - 08:53 PM EST / 2018.12.17 0153 UTC
Wind: from the WNW (290 degrees) at 8 MPH (7 KT):0
Visibility: 10 mile(s):0
Sky conditions: mostly cloudy
Temperature: 71.1 F (21.7 C)
Dew Point: 60.1 F (15.6 C)
Relative Humidity: 68%
Pressure (altimeter): 30.11 in. Hg (1019 hPa)
ob: KFLL 170153Z 29007KT 10SM BKN050 22/16 A3011 RMK AO2 SLP196 T02170156
cycle: 2

Station Type Date Time Source
KFLL TAF 2018/12/16 21:57 UTC NOAA

TAF
AMD KFLL 162054Z 1621/1724 26009KT P6SM SCT040 SCT250
FM170200 29004KT P6SM FEW250
FM171500 31007KT P6SM SKC


Example: see airport list